Language: 


Des rapports , des résumés tant et plus, au choix de chacun....


Données statistiques de la station
Quotidien Rapport Janvier 4, 2017 Unités:  Anglais    Métrique   les deux
« Précédent Jour
Suivant Jour »
Quotidien Hebdomadaire Mensuel Annuel Actuel
  Haut: Bas: Moyen:
Température: 45.9 °F 36.9 °F 41 °F
Pt de rosée: 44.1 °F 34.7 °F 37.8 °F
Humidité: 98 % 72 % 89 %
Vitesse du vent: 13.6 mph 0 mph 5.7 mph
Rafales: 690.8 mph - -
Vent:- - WNW
Pression: 30.3 in 30.1 in -
Précipitation: 0.02 in    
Historical Graphs
 
 
Données statistiques pour Janvier 4, 2017
Heure Température Point de rosée Pression Vent Vitesse du vent Refales Humidité Pluie (taux horaire)
00:09 40.3 °F 37.9 °F 30.2 in West 5.8 mph 11 mph 91 % 0 in
00:19 40.3 °F 37.6 °F 30.2 in West 12.3 mph 12.8 mph 90 % 0 in
00:29 40.3 °F 37.6 °F 30.2 in West 6.3 mph 12.3 mph 90 % 0 in
00:39 40.3 °F 37.2 °F 30.2 in West 6 mph 12.3 mph 89 % 0 in
00:49 40.3 °F 37.2 °F 30.2 in WNW 11 mph 11.4 mph 89 % 0 in
00:59 40.3 °F 37.2 °F 30.2 in West 7.6 mph 11 mph 89 % 0 in
01:09 40.5 °F 37.6 °F 30.2 in West 6.3 mph 14.3 mph 89 % 0 in
01:19 40.3 °F 37 °F 30.2 in West 8.9 mph 14.5 mph 88 % 0 in
01:29 40.3 °F 37 °F 30.2 in West 11.4 mph 15.2 mph 88 % 0 in
01:39 40.3 °F 37 °F 30.2 in West 12.1 mph 13.2 mph 88 % 0 in
01:49 40.3 °F 36.7 °F 30.2 in West 8.7 mph 15.2 mph 87 % 0 in
01:59 40.1 °F 36.7 °F 30.2 in West 10.1 mph 14.8 mph 87 % 0 in
02:09 40.1 °F 36.7 °F 30.2 in WNW 8.5 mph 11.4 mph 87 % 0 in
02:19 40.3 °F 36.7 °F 30.2 in WSW 8.7 mph 15.4 mph 87 % 0 in
02:29 40.1 °F 36.3 °F 30.2 in West 4.7 mph 13 mph 86 % 0 in
02:39 40.1 °F 36.3 °F 30.2 in West 8.1 mph 13 mph 86 % 0 in
02:59 39.9 °F 36.1 °F 30.2 in WSW 8.5 mph 13.2 mph 86 % 0 in
03:09 39.9 °F 36.3 °F 30.2 in West 7.8 mph 12.1 mph 87 % 0 in
03:19 40.1 °F 36.7 °F 30.1 in WSW 10.1 mph 13.6 mph 87 % 0 in
03:29 40.1 °F 36.7 °F 30.1 in NNW 9.8 mph 12.1 mph 87 % 0 in
03:39 40.3 °F 36.7 °F 30.1 in West 7.8 mph 15.2 mph 87 % 0 in
03:49 40.3 °F 36.7 °F 30.1 in West 7.6 mph 13 mph 87 % 0 in
03:59 40.3 °F 37 °F 30.1 in WNW 10.3 mph 15.2 mph 88 % 0 in
04:09 40.5 °F 37.2 °F 30.1 in West 11 mph 13.2 mph 88 % 0 in
04:19 40.5 °F 37.2 °F 30.1 in West 10.7 mph 12.8 mph 88 % 0 in
04:29 40.6 °F 37.4 °F 30.1 in SSW 6 mph 12.5 mph 88 % 0 in
04:39 40.6 °F 37.4 °F 30.1 in West 8.1 mph 10.5 mph 88 % 0 in
04:49 40.6 °F 37.4 °F 30.1 in West 10.7 mph 12.5 mph 88 % 0 in
04:59 40.6 °F 37.4 °F 30.1 in WNW 6.3 mph 12.5 mph 88 % 0 in
05:09 40.6 °F 37.8 °F 30.1 in West 6.3 mph 12.5 mph 89 % 0 in
05:19 40.6 °F 37.8 °F 30.1 in WSW 10.5 mph 13.9 mph 89 % 0 in
05:29 40.6 °F 37.8 °F 30.1 in WSW 8.5 mph 12.5 mph 89 % 0 in
05:39 40.8 °F 37.8 °F 30.1 in West 6.3 mph 13 mph 89 % 0 in
05:49 40.6 °F 37.9 °F 30.1 in WNW 10.1 mph 10.9 mph 90 % 0 in
05:59 40.6 °F 38.1 °F 30.1 in West 10.5 mph 12.6 mph 91 % 0 in
06:09 40.5 °F 38.3 °F 30.1 in WNW 5.8 mph 11.9 mph 92 % 0 in
06:19 40.5 °F 38.7 °F 30.1 in West 10.7 mph 15.4 mph 93 % 0 in
06:29 40.3 °F 38.7 °F 30.1 in WSW 4 mph 10.7 mph 94 % 0 in
06:39 40.1 °F 38.5 °F 30.1 in WNW 10.1 mph 11.9 mph 94 % 0 in
06:49 40.1 °F 38.8 °F 30.1 in NNW 6.9 mph 13.7 mph 95 % 0 in
06:59 40.3 °F 39.2 °F 30.1 in WNW 10.1 mph 10.3 mph 96 % 0 in
07:09 40.3 °F 39.2 °F 30.1 in WSW 6 mph 11 mph 96 % 0 in
07:19 40.3 °F 39.2 °F 30.1 in West 6 mph 13 mph 96 % 0 in
07:29 40.3 °F 39.6 °F 30.1 in West 5.6 mph 12.1 mph 97 % 0 in
07:39 40.3 °F 39.6 °F 30.1 in West 5.8 mph 9.8 mph 97 % 0 in
07:49 40.3 °F 39.6 °F 30.1 in West 6.5 mph 10.7 mph 97 % 0 in
07:59 40.3 °F 39.6 °F 30.1 in West 2 mph 8.1 mph 97 % 0 in
08:09 40.3 °F 39.7 °F 30.1 in West 2.7 mph 7.6 mph 98 % 0 in
08:19 40.3 °F 39.7 °F 30.1 in West 5.4 mph 8.1 mph 98 % 0 in
08:29 40.5 °F 39.9 °F 30.1 in West 7.6 mph 8.1 mph 98 % 0 in
08:39 40.6 °F 40.1 °F 30.1 in West 3.1 mph 7.6 mph 98 % 0 in
08:49 40.8 °F 39.9 °F 30.1 in WSW 4 mph 8.5 mph 97 % 0 in
08:59 40.8 °F 40.3 °F 30.1 in WNW 5.4 mph 8.5 mph 98 % 0 in
09:09 40.8 °F 40.3 °F 30.1 in West 4.7 mph 7.6 mph 98 % 0 in
09:19 41 °F 40.5 °F 30.1 in West 5.6 mph 7 mph 98 % 0 in
09:29 41.2 °F 40.6 °F 30.1 in Calm   5.6 mph 98 % 0 in
09:39 41.7 °F 41.2 °F 30.1 in NNE 3.8 mph 7.6 mph 98 % 0 in
09:49 42.3 °F 41.7 °F 30.1 in WNW 2.7 mph 7.6 mph 98 % 0 in
09:59 43 °F 42.4 °F 30.1 in West 5.6 mph 9.6 mph 98 % 0 in
10:09 43.3 °F 42.8 °F 30.1 in NW 8.5 mph 8.5 mph 98 % 0 in
10:19 43.9 °F 43.3 °F 30.1 in NW 4.7 mph 10.3 mph 98 % 0 in
10:29 44.2 °F 43.3 °F 30.1 in NW 4.7 mph 4.7 mph 97 % 0 in
10:39 44.2 °F 43.5 °F 30.1 in NW 4.7 mph 4.7 mph 97 % 0 in
10:49 44.8 °F 43.9 °F 30.1 in NW 3.6 mph 10.3 mph 97 % 0 in
10:59 45 °F 43.9 °F 30.1 in NNW 3.6 mph 12.1 mph 96 % 0 in
11:09 45.1 °F 44.1 °F 30.1 in NNW 5.4 mph 11.4 mph 96 % 0 in
11:19 45.1 °F 44.1 °F 30.1 in NW 3.8 mph 21 mph 96 % 0 in
11:29 45 °F 43.9 °F 30.1 in North 2 mph 21 mph 96 % 0 in
11:39 45.1 °F 44.1 °F 30.1 in West 5.8 mph 7.8 mph 96 % 0 in
11:49 45.1 °F 44.1 °F 30.2 in West 3.4 mph 20.6 mph 96 % 0 in
11:59 45 °F 43.9 °F 30.2 in WNW 4.7 mph 6.5 mph 96 % 0 in
12:09 44.4 °F 43.5 °F 30.1 in NNE 8.5 mph 21 mph 96 % 0 in
12:19 43.3 °F 41.4 °F 30.2 in NNW 8.5 mph 690.8 mph 93 % 0 in
12:29 43 °F 40.8 °F 30.2 in NNW 7.4 mph 9.6 mph 92 % 0 in
12:39 42.6 °F 39.9 °F 30.2 in WNW 5.6 mph 9.8 mph 90 % 0 in
12:59 43.2 °F 40.6 °F 30.1 in North 3.6 mph 8.9 mph 91 % 0.03 in
13:49 45.9 °F 39.6 °F 30.1 in WNW 6 mph 12.5 mph 79 % 0.02 in
13:59 45.7 °F 37.4 °F 30.1 in North 8.7 mph 14.3 mph 73 % 0 in
14:09 45.3 °F 36.9 °F 30.1 in North 9.8 mph 12.5 mph 72 % 0 in
14:19 45.9 °F 37.2 °F 30.1 in North 6.5 mph 20.8 mph 72 % 0 in
14:29 44.1 °F 36.9 °F 30.2 in North 7.4 mph 17.9 mph 76 % 0 in
14:39 43.5 °F 36.7 °F 30.2 in North 7.8 mph 12.3 mph 77 % 0 in
14:49 43.3 °F 36.7 °F 30.2 in North 4 mph 13 mph 77 % 0 in
14:59 43.5 °F 37.4 °F 30.2 in North 13.6 mph 14.8 mph 79 % 0 in
15:09 43.5 °F 36.7 °F 30.2 in North 11 mph 17.7 mph 77 % 0 in
15:19 43.5 °F 36.3 °F 30.2 in NNW 3.1 mph 13.2 mph 76 % 0 in
15:29 43.5 °F 36.3 °F 30.2 in North 8.1 mph 12.8 mph 76 % 0 in
15:39 44.1 °F 36.7 °F 30.2 in NNE 4 mph 12.3 mph 75 % 0 in
15:49 43.5 °F 36.3 °F 30.2 in WNW 6 mph 11.4 mph 76 % 0 in
15:59 43 °F 36 °F 30.1 in North 3.4 mph 9.6 mph 76 % 0 in
16:09 42.6 °F 36 °F 30.2 in NNW 6.3 mph 9.6 mph 77 % 0 in
16:19 42.3 °F 36.1 °F 30.2 in NW 5.6 mph 8.7 mph 79 % 0 in
16:29 42.1 °F 36 °F 30.1 in WNW 4.9 mph 11 mph 79 % 0 in
16:39 42.1 °F 36 °F 30.2 in NNW 5.8 mph 10.5 mph 79 % 0 in
16:49 42.1 °F 36 °F 30.2 in NNE 6 mph 10.1 mph 79 % 0 in
16:59 41.5 °F 35.4 °F 30.1 in NNE 1.6 mph 6.5 mph 79 % 0 in
17:09 41 °F 35.1 °F 30.2 in North 2 mph 5.6 mph 79 % 0 in
17:19 40.6 °F 35.1 °F 30.2 in Calm   8.7 mph 80 % 0 in
17:29 40.6 °F 35.2 °F 30.2 in WNW 4.9 mph 8.5 mph 81 % 0 in
17:39 40.3 °F 35.2 °F 30.2 in West 2.7 mph 7.6 mph 82 % 0 in
17:49 40.5 °F 35.8 °F 30.2 in NNW 5.4 mph 10.7 mph 83 % 0 in
17:59 40.6 °F 36.1 °F 30.2 in NW 4.3 mph 10.3 mph 84 % 0 in
18:09 40.5 °F 36 °F 30.2 in NNE 1.6 mph 6 mph 84 % 0 in
18:19 40.3 °F 35.8 °F 30.2 in NNE 4.3 mph 11.9 mph 84 % 0 in
18:29 40.5 °F 35.8 °F 30.2 in North 3.6 mph 12.1 mph 83 % 0 in
18:39 40.5 °F 35.4 °F 30.2 in NNW 6 mph 8.7 mph 82 % 0 in
18:49 40.1 °F 35.1 °F 30.2 in NNW 3.4 mph 6.3 mph 82 % 0 in
18:59 40.1 °F 35.8 °F 30.2 in North 5.4 mph 7.8 mph 84 % 0 in
19:09 39.7 °F 35.6 °F 30.2 in North 5.8 mph 7.8 mph 85 % 0 in
19:19 39.6 °F 35.8 °F 30.2 in North 5.4 mph 7.2 mph 86 % 0 in
19:29 39.2 °F 35.8 °F 30.2 in WNW 1.3 mph 6 mph 87 % 0 in
19:39 39 °F 35.8 °F 30.2 in WNW 2.5 mph 4.9 mph 88 % 0 in
19:49 38.8 °F 36 °F 30.2 in Calm   4.3 mph 89 % 0 in
19:59 38.7 °F 35.8 °F 30.2 in West 3.4 mph 3.4 mph 89 % 0 in
20:09 38.5 °F 35.4 °F 30.2 in WNW 2.7 mph 3.6 mph 89 % 0 in
20:19 38.1 °F 35.2 °F 30.2 in NNW 2 mph 4 mph 89 % 0 in
20:29 38.5 °F 36.1 °F 30.2 in North 3.4 mph 9.2 mph 91 % 0 in
20:39 38.5 °F 35.8 °F 30.2 in West 2.7 mph 7.6 mph 90 % 0 in
20:49 38.1 °F 35.2 °F 30.2 in NNW 0.9 mph 4.9 mph 89 % 0 in
20:59 37.8 °F 34.9 °F 30.2 in WNW 4.7 mph 4.7 mph 89 % 0 in
21:09 37.6 °F 34.7 °F 30.2 in WSW 2.5 mph 6.3 mph 89 % 0 in
21:19 37.8 °F 35.2 °F 30.2 in West 3.1 mph 6.7 mph 90 % 0 in
21:29 38.5 °F 36.3 °F 30.2 in West 2.5 mph 6.9 mph 92 % 0 in
21:39 39 °F 36.9 °F 30.3 in NNW 6 mph 10.3 mph 92 % 0 in
21:49 39 °F 36.9 °F 30.3 in NW 3.6 mph 8.5 mph 92 % 0 in
21:59 39 °F 36.9 °F 30.3 in North 4 mph 7.4 mph 92 % 0 in
22:09 38.7 °F 36.7 °F 30.3 in Calm   4.9 mph 92 % 0 in
22:19 38.5 °F 36.1 °F 30.3 in WNW 3.1 mph 5.4 mph 92 % 0 in
22:29 37.8 °F 35.8 °F 30.3 in NW 2.7 mph 6.5 mph 92 % 0 in
22:39 37.6 °F 35.4 °F 30.3 in West 2 mph 3.8 mph 92 % 0 in
22:49 37 °F 35.2 °F 30.3 in Calm   4 mph 93 % 0 in
22:59 36.9 °F 34.9 °F 30.3 in West 3.6 mph 3.8 mph 93 % 0 in
23:09 36.9 °F 35.2 °F 30.3 in WNW 2.9 mph 4.5 mph 94 % 0 in
23:19 36.9 °F 35.4 °F 30.3 in Calm   4 mph 95 % 0 in
23:29 36.9 °F 35.4 °F 30.3 in West 2.2 mph 4 mph 95 % 0 in
23:39 36.9 °F 36 °F 30.3 in WNW 1.1 mph 3.6 mph 96 % 0 in
Le Gheer Warneton
Courtoisie de Weather Underground - 1.5 mb

Mise a jour : 17/12/2017 22:20:15
Généré par Cumulus 1.9.4 (1099)